Time;durP1;ratioP1;P1;durP2;ratioP2;P2;SDS_P1;SDS_P2;PMS_P1;PMS_P2;Temp;Humidity;BMP_temperature;BMP_pressure;BME280_temperature;BME280_humidity;BME280_pressure;Samples;Min_cycle;Max_cycle;Signal;HPM_P1;HPM_P2
2022/05/12 00:00:49;;;;;;;0.22;0.15;;;12.00;99.90;;;;;;5086310;28;20039;-68
2022/05/12 00:03:16;;;;;;;3.88;0.40;;;12.00;99.90;;;;;;5078300;28;20020;-68
2022/05/12 00:05:42;;;;;;;1.88;0.38;;;11.90;99.90;;;;;;5079052;28;20044;-68
2022/05/12 00:08:08;;;;;;;0.57;0.25;;;11.90;99.90;;;;;;5062470;28;20496;-68
2022/05/12 00:10:33;;;;;;;5.95;0.32;;;11.90;99.90;;;;;;5046294;28;20055;-68
2022/05/12 00:12:59;;;;;;;0.52;0.17;;;11.80;99.90;;;;;;5061614;28;20032;-68
2022/05/12 00:15:28;;;;;;;3.90;0.75;;;11.80;99.90;;;;;;5060016;28;20052;-68
2022/05/12 00:17:54;;;;;;;0.20;0.20;;;11.80;99.90;;;;;;5075332;28;20040;-68
2022/05/12 00:20:22;;;;;;;1.30;0.40;;;11.70;99.90;;;;;;5076239;28;20036;-68
2022/05/12 00:22:48;;;;;;;0.70;0.20;;;11.70;99.90;;;;;;5059173;28;20398;-68
2022/05/12 00:25:16;;;;;;;0.45;0.20;;;11.60;99.90;;;;;;5060157;28;20029;-68
2022/05/12 00:27:42;;;;;;;0.50;0.28;;;11.60;99.90;;;;;;5060745;28;20049;-68
2022/05/12 00:30:11;;;;;;;1.73;0.60;;;11.60;99.90;;;;;;5059245;28;20642;-68
2022/05/12 00:32:43;;;;;;;2.25;0.70;;;11.60;99.90;;;;;;5056051;28;20044;-68
2022/05/12 00:35:11;;;;;;;0.28;0.20;;;11.50;99.90;;;;;;5059141;28;20031;-68
2022/05/12 00:37:37;;;;;;;0.20;0.10;;;11.50;99.90;;;;;;5057957;28;20039;-69
2022/05/12 00:40:04;;;;;;;0.30;0.20;;;11.50;99.90;;;;;;5047588;28;20028;-69
2022/05/12 00:42:29;;;;;;;0.45;0.22;;;11.50;99.90;;;;;;5060190;28;20043;-68
2022/05/12 00:44:55;;;;;;;0.80;0.30;;;11.50;99.90;;;;;;5065071;28;20044;-68
2022/05/12 00:47:20;;;;;;;1.95;0.50;;;11.40;99.90;;;;;;5060531;28;20127;-68
2022/05/12 00:49:49;;;;;;;0.77;0.25;;;11.40;99.90;;;;;;5055942;28;20067;-69
2022/05/12 00:52:18;;;;;;;0.00;0.00;;;11.40;99.90;;;;;;5080036;28;20028;-69
2022/05/12 00:54:54;;;;;;;0.40;0.20;;;11.40;99.90;;;;;;5079435;28;20032;-69
2022/05/12 00:57:24;;;;;;;;;;;11.30;99.90;;;;;;5039251;28;20079;-68
2022/05/12 00:59:50;;;;;;;0.57;0.28;;;11.30;99.90;;;;;;5076935;28;19924;-69
2022/05/12 01:02:18;;;;;;;0.70;0.50;;;11.30;99.90;;;;;;5054735;28;20032;-68
2022/05/12 01:04:45;;;;;;;1.23;0.60;;;11.30;99.90;;;;;;5058206;28;20039;-68
2022/05/12 01:07:11;;;;;;;0.95;0.30;;;11.20;99.90;;;;;;5059735;28;20500;-68
2022/05/12 01:09:37;;;;;;;1.02;0.30;;;11.20;99.90;;;;;;5058558;28;20111;-68
2022/05/12 01:12:04;;;;;;;0.10;0.10;;;11.20;99.90;;;;;;5079341;28;20093;-69
2022/05/12 01:14:29;;;;;;;0.10;0.10;;;11.20;99.90;;;;;;5061973;28;20048;-68
2022/05/12 01:17:00;;;;;;;0.40;0.30;;;11.10;99.90;;;;;;5056741;28;20055;-68
2022/05/12 01:19:35;;;;;;;1.40;0.77;;;11.10;99.90;;;;;;5056719;28;20127;-68
2022/05/12 01:22:03;;;;;;;0.40;0.17;;;11.10;99.90;;;;;;5059777;28;20117;-68
2022/05/12 01:24:42;;;;;;;1.05;0.40;;;11.10;99.90;;;;;;5062527;28;20047;-68
2022/05/12 01:27:22;;;;;;;0.28;0.10;;;11.10;99.90;;;;;;5059718;28;20695;-68
2022/05/12 01:29:51;;;;;;;0.20;0.17;;;11.00;99.90;;;;;;5039091;28;20496;-68
2022/05/12 01:32:18;;;;;;;2.13;0.17;;;11.00;99.90;;;;;;5049056;28;20421;-68
2022/05/12 01:34:44;;;;;;;0.22;0.20;;;11.00;99.90;;;;;;5060060;28;20452;-68
2022/05/12 01:37:10;;;;;;;0.98;0.40;;;11.00;99.90;;;;;;5074735;28;20492;-68
2022/05/12 01:39:36;;;;;;;0.82;0.20;;;10.90;99.90;;;;;;5059219;28;20286;-68
2022/05/12 01:42:04;;;;;;;0.70;0.30;;;10.90;99.90;;;;;;5055426;28;20036;-68
2022/05/12 01:44:30;;;;;;;0.63;0.20;;;11.00;99.90;;;;;;5082980;28;20051;-68
2022/05/12 01:46:56;;;;;;;0.43;0.22;;;11.00;99.90;;;;;;5073959;28;20044;-68
2022/05/12 01:49:23;;;;;;;0.93;0.32;;;11.00;99.90;;;;;;5071066;28;20533;-68
2022/05/12 01:51:56;;;;;;;0.73;0.30;;;11.00;99.90;;;;;;5059425;28;20571;-68
2022/05/12 01:54:23;;;;;;;2.42;0.30;;;11.00;99.90;;;;;;5060208;28;20028;-68
2022/05/12 01:56:48;;;;;;;1.13;0.47;;;10.90;99.90;;;;;;5059778;28;20044;-68
2022/05/12 01:59:14;;;;;;;0.45;0.30;;;10.90;99.90;;;;;;5063314;28;20033;-68
2022/05/12 02:01:40;;;;;;;0.57;0.20;;;10.90;99.90;;;;;;5058867;28;20349;-68
2022/05/12 02:04:05;;;;;;;1.48;0.35;;;10.90;99.90;;;;;;5057725;28;20040;-68
2022/05/12 02:06:32;;;;;;;0.90;0.30;;;10.90;99.90;;;;;;5059378;28;20032;-68
2022/05/12 02:08:58;;;;;;;0.75;0.40;;;10.90;99.90;;;;;;5066189;28;20047;-68
2022/05/12 02:11:25;;;;;;;0.73;0.30;;;10.80;99.90;;;;;;5056949;28;20048;-68
2022/05/12 02:13:51;;;;;;;0.90;0.30;;;10.80;99.90;;;;;;5060921;28;20044;-68
2022/05/12 02:16:17;;;;;;;0.45;0.40;;;10.80;99.90;;;;;;5035743;28;20032;-68
2022/05/12 02:18:43;;;;;;;1.67;0.30;;;10.80;99.90;;;;;;5076135;28;20036;-68
2022/05/12 02:21:10;;;;;;;0.93;0.38;;;10.80;99.90;;;;;;5056122;28;20420;-68
2022/05/12 02:23:36;;;;;;;1.17;0.50;;;10.80;99.90;;;;;;5055729;28;20066;-68
2022/05/12 02:26:03;;;;;;;0.22;0.20;;;10.80;99.90;;;;;;5075548;28;20040;-68
2022/05/12 02:28:28;;;;;;;1.80;0.52;;;10.70;99.90;;;;;;5059962;28;20047;-68
2022/05/12 02:30:54;;;;;;;0.30;0.30;;;10.70;99.90;;;;;;5075472;28;20036;-68
2022/05/12 02:33:20;;;;;;;0.75;0.43;;;10.70;99.90;;;;;;5054760;28;20068;-69
2022/05/12 02:35:45;;;;;;;0.68;0.38;;;10.60;99.90;;;;;;5059949;28;20040;-69
2022/05/12 02:38:11;;;;;;;2.38;0.47;;;10.60;99.90;;;;;;5056816;28;20518;-69
2022/05/12 02:40:37;;;;;;;0.60;0.20;;;10.60;99.90;;;;;;5054664;28;20465;-68
2022/05/12 02:43:22;;;;;;;2.38;0.22;;;10.60;99.90;;;;;;5058865;28;20162;-68
2022/05/12 02:45:49;;;;;;;0.52;0.40;;;10.60;99.90;;;;;;5078323;28;20048;-69
2022/05/12 02:48:15;;;;;;;2.08;0.35;;;10.50;99.90;;;;;;5057270;28;20036;-69
2022/05/12 02:50:42;;;;;;;0.70;0.17;;;10.40;99.90;;;;;;5046402;28;20491;-69
2022/05/12 02:53:07;;;;;;;1.08;0.38;;;10.40;99.90;;;;;;5060048;28;20105;-68
2022/05/12 02:55:33;;;;;;;0.98;0.30;;;10.40;99.90;;;;;;5060337;28;20044;-69
2022/05/12 02:57:58;;;;;;;0.75;0.28;;;10.30;99.90;;;;;;5078795;28;20041;-68
2022/05/12 03:00:24;;;;;;;0.68;0.30;;;10.40;99.90;;;;;;5061691;28;20040;-69
2022/05/12 03:02:50;;;;;;;0.20;0.20;;;10.40;99.90;;;;;;5062760;28;20089;-68
2022/05/12 03:05:15;;;;;;;0.55;0.40;;;10.30;99.90;;;;;;5059677;28;20094;-68
2022/05/12 03:07:41;;;;;;;0.95;0.40;;;10.40;99.90;;;;;;5060578;28;20558;-68
2022/05/12 03:10:08;;;;;;;0.70;0.35;;;10.40;99.90;;;;;;5061412;28;20469;-68
2022/05/12 03:12:34;;;;;;;1.15;0.40;;;10.40;99.90;;;;;;5053824;28;20436;-68
2022/05/12 03:15:00;;;;;;;0.38;0.30;;;10.40;99.90;;;;;;5045568;28;20051;-68
2022/05/12 03:17:26;;;;;;;1.27;0.30;;;10.30;99.90;;;;;;5060143;28;20443;-68
2022/05/12 03:19:51;;;;;;;1.92;0.50;;;10.30;99.90;;;;;;5063313;28;20032;-68
2022/05/12 03:22:17;;;;;;;5.80;0.52;;;10.30;99.90;;;;;;5059519;28;20078;-68
2022/05/12 03:24:43;;;;;;;1.17;0.55;;;10.30;99.90;;;;;;5056783;28;20086;-69
2022/05/12 03:27:09;;;;;;;1.27;0.40;;;10.30;99.90;;;;;;5059804;28;20052;-68
2022/05/12 03:29:35;;;;;;;0.68;0.40;;;10.30;99.90;;;;;;5059524;28;20048;-69
2022/05/12 03:32:01;;;;;;;0.50;0.30;;;10.30;99.90;;;;;;5061148;28;20043;-68
2022/05/12 03:34:26;;;;;;;1.27;0.63;;;10.30;99.90;;;;;;5062721;28;20063;-68
2022/05/12 03:36:52;;;;;;;2.35;0.50;;;10.30;99.90;;;;;;5081935;28;20516;-69
2022/05/12 03:39:17;;;;;;;1.45;0.45;;;10.30;99.90;;;;;;5046361;28;20040;-69
2022/05/12 03:41:43;;;;;;;0.35;0.20;;;10.30;99.90;;;;;;5060444;28;20249;-69
2022/05/12 03:47:12;;;;;;;0.68;0.50;;;10.30;99.90;;;;;;5026439;28;20476;-68
2022/05/12 03:49:38;;;;;;;0.80;0.38;;;10.20;99.90;;;;;;5054436;28;20048;-68
2022/05/12 03:52:04;;;;;;;1.30;0.45;;;10.20;99.90;;;;;;5042930;28;20040;-68
2022/05/12 03:54:30;;;;;;;1.27;0.50;;;10.20;99.90;;;;;;5050441;28;20043;-68
2022/05/12 03:56:55;;;;;;;2.08;0.82;;;10.20;99.90;;;;;;5060183;28;20035;-68
2022/05/12 03:59:21;;;;;;;0.80;0.50;;;10.10;99.90;;;;;;5076785;28;20032;-68
2022/05/12 04:01:47;;;;;;;1.73;0.77;;;10.20;99.90;;;;;;5041369;28;20390;-68
2022/05/12 04:04:13;;;;;;;6.20;1.02;;;10.20;99.90;;;;;;5058180;28;20125;-68
2022/05/12 04:06:38;;;;;;;3.15;0.52;;;10.20;99.90;;;;;;5064799;28;20135;-68
2022/05/12 04:09:04;;;;;;;1.23;0.57;;;10.20;99.90;;;;;;5080039;28;20119;-68
2022/05/12 04:11:30;;;;;;;0.52;0.30;;;10.10;99.90;;;;;;5080342;28;20428;-68
2022/05/12 04:13:56;;;;;;;4.55;1.23;;;10.20;99.90;;;;;;5057297;28;20052;-68
2022/05/12 04:16:23;;;;;;;3.67;0.70;;;10.20;99.90;;;;;;5053699;28;20053;-68
2022/05/12 04:18:48;;;;;;;1.52;0.73;;;10.10;99.90;;;;;;5061873;28;20482;-69
2022/05/12 04:21:16;;;;;;;0.65;0.52;;;10.10;99.90;;;;;;5056863;28;20039;-68
2022/05/12 04:23:42;;;;;;;0.93;0.50;;;10.10;99.90;;;;;;5042476;28;20036;-68
2022/05/12 04:26:08;;;;;;;0.90;0.60;;;10.10;99.90;;;;;;5059152;28;20047;-68
2022/05/12 04:28:34;;;;;;;3.13;0.63;;;10.10;99.90;;;;;;5057540;28;20064;-68
2022/05/12 04:31:00;;;;;;;1.30;0.73;;;10.10;99.90;;;;;;5056240;28;20033;-68
2022/05/12 04:36:10;;;;;;;2.67;0.85;;;10.20;99.90;;;;;;5058601;28;20048;-68
2022/05/12 04:38:35;;;;;;;2.20;0.60;;;10.20;99.90;;;;;;5067090;28;20028;-68
2022/05/12 04:41:01;;;;;;;3.22;0.57;;;10.30;99.90;;;;;;5061516;28;20039;-68
2022/05/12 04:43:27;;;;;;;1.75;0.40;;;10.30;99.90;;;;;;5079538;28;20064;-68
2022/05/12 04:45:53;;;;;;;3.05;1.10;;;10.30;99.90;;;;;;5066797;28;21478;-68
2022/05/12 04:48:18;;;;;;;1.25;0.52;;;10.40;99.90;;;;;;5056397;28;20379;-68
2022/05/12 04:50:44;;;;;;;1.00;0.60;;;10.40;99.90;;;;;;5075639;28;20035;-68
2022/05/12 04:53:10;;;;;;;1.38;0.75;;;10.40;99.90;;;;;;5047572;28;20029;-68
2022/05/12 04:55:38;;;;;;;5.05;0.82;;;10.40;99.90;;;;;;5061599;28;20054;-68
2022/05/12 04:58:04;;;;;;;2.50;0.70;;;10.50;99.90;;;;;;5061726;28;20039;-69
2022/05/12 05:00:40;;;;;;;2.58;0.70;;;10.50;99.90;;;;;;5060358;28;20035;-68
2022/05/12 05:03:07;;;;;;;1.45;0.68;;;10.50;99.90;;;;;;5057898;28;20040;-68
2022/05/12 05:05:33;;;;;;;1.52;0.60;;;10.60;99.90;;;;;;5062243;28;20459;-68
2022/05/12 05:07:59;;;;;;;2.97;0.88;;;10.60;99.90;;;;;;5061233;28;20036;-68
2022/05/12 05:10:26;;;;;;;3.90;0.45;;;10.60;99.90;;;;;;5037806;28;20130;-68
2022/05/12 05:12:53;;;;;;;2.50;0.82;;;10.60;99.90;;;;;;5056442;28;20386;-68
2022/05/12 05:15:20;;;;;;;7.65;1.20;;;10.70;99.90;;;;;;5055888;28;20185;-68
2022/05/12 05:17:47;;;;;;;3.22;0.90;;;10.70;99.90;;;;;;5058529;28;20142;-68
2022/05/12 05:20:17;;;;;;;1.52;0.70;;;10.70;99.90;;;;;;5058713;28;21270;-68
2022/05/12 05:22:44;;;;;;;1.75;0.80;;;10.70;99.90;;;;;;5041861;28;20033;-71
2022/05/12 05:25:10;;;;;;;5.13;1.30;;;10.80;99.90;;;;;;5076234;28;20535;-71
2022/05/12 05:27:37;;;;;;;3.03;1.17;;;10.80;99.90;;;;;;5060635;28;20079;-69
2022/05/12 05:30:04;;;;;;;1.52;0.73;;;10.80;99.90;;;;;;5052925;28;20043;-69
2022/05/12 05:32:30;;;;;;;2.08;1.30;;;10.80;99.90;;;;;;5059810;28;20106;-69
2022/05/12 05:34:56;;;;;;;3.42;0.80;;;10.90;99.90;;;;;;5081051;28;20481;-69
2022/05/12 05:37:22;;;;;;;1.55;0.80;;;11.00;99.90;;;;;;5057748;28;20782;-69
2022/05/12 05:39:48;;;;;;;1.85;1.10;;;11.10;99.90;;;;;;5075029;28;20050;-68
2022/05/12 05:42:16;;;;;;;3.53;1.33;;;11.20;99.90;;;;;;5060218;28;20497;-69
2022/05/12 05:44:42;;;;;;;2.17;1.15;;;11.30;99.90;;;;;;5060137;28;20422;-69
2022/05/12 05:47:08;;;;;;;2.28;0.90;;;11.40;99.90;;;;;;5045455;28;20054;-68
2022/05/12 05:49:35;;;;;;;5.47;1.30;;;11.50;99.90;;;;;;5038946;28;20497;-69
2022/05/12 05:54:45;;;;;;;2.10;1.13;;;11.70;99.90;;;;;;5060536;28;20040;-69
2022/05/12 05:57:12;;;;;;;1.92;1.10;;;11.70;99.90;;;;;;5057157;28;20032;-69
2022/05/12 05:59:38;;;;;;;2.55;0.95;;;11.70;99.90;;;;;;5061722;28;20063;-69
2022/05/12 06:02:04;;;;;;;7.93;1.58;;;11.70;99.90;;;;;;5052055;28;20028;-69
2022/05/12 06:04:30;;;;;;;4.53;1.40;;;11.70;99.90;;;;;;5061241;28;20036;-69
2022/05/12 06:06:56;;;;;;;2.65;1.27;;;11.80;99.90;;;;;;5075570;28;20451;-69
2022/05/12 06:09:23;;;;;;;7.47;1.35;;;11.90;99.90;;;;;;5065335;28;20069;-69
2022/05/12 06:11:48;;;;;;;6.47;1.27;;;12.00;99.90;;;;;;5068816;28;20052;-69
2022/05/12 06:14:14;;;;;;;3.38;1.45;;;12.00;99.90;;;;;;5061026;28;20045;-69
2022/05/12 06:16:39;;;;;;;6.15;1.45;;;12.00;99.90;;;;;;5057342;28;20126;-69
2022/05/12 06:19:06;;;;;;;2.60;1.45;;;12.10;99.90;;;;;;5034672;28;20073;-70
2022/05/12 06:21:35;;;;;;;3.13;1.63;;;12.10;99.90;;;;;;5055588;28;20924;-69
2022/05/12 06:24:01;;;;;;;3.42;2.08;;;12.10;99.90;;;;;;5057121;28;20489;-69
2022/05/12 06:26:26;;;;;;;6.22;1.60;;;12.30;99.90;;;;;;5059684;28;20045;-69
2022/05/12 06:28:52;;;;;;;4.50;1.90;;;12.80;99.90;;;;;;5055062;28;20055;-70
2022/05/12 06:31:24;;;;;;;3.45;1.48;;;13.50;99.90;;;;;;5052633;28;20533;-70
2022/05/12 06:33:51;;;;;;;5.63;1.70;;;14.30;99.90;;;;;;5057228;28;20052;-70
2022/05/12 06:36:17;;;;;;;2.72;1.35;;;14.70;99.90;;;;;;5056286;28;20581;-69
2022/05/12 06:38:42;;;;;;;3.50;1.38;;;14.80;99.90;;;;;;5057030;28;20043;-69
2022/05/12 06:41:08;;;;;;;2.85;1.60;;;14.90;99.90;;;;;;5050214;28;20448;-70
2022/05/12 06:43:35;;;;;;;2.83;1.60;;;14.70;99.90;;;;;;5058489;28;20086;-70
2022/05/12 06:46:01;;;;;;;4.63;1.60;;;14.50;99.90;;;;;;5055861;28;20674;-70
2022/05/12 06:48:26;;;;;;;3.90;1.90;;;14.30;99.90;;;;;;5059867;28;20157;-70
2022/05/12 06:50:53;;;;;;;3.15;1.45;;;14.10;99.90;;;;;;5056687;28;20059;-69
2022/05/12 06:53:18;;;;;;;5.70;1.48;;;14.00;99.90;;;;;;5057618;28;20043;-69
2022/05/12 06:55:45;;;;;;;2.55;1.33;;;14.00;99.90;;;;;;5056665;28;20451;-69
2022/05/12 06:58:11;;;;;;;2.35;1.25;;;14.00;99.90;;;;;;5054021;28;20049;-69
2022/05/12 07:00:37;;;;;;;3.03;1.10;;;14.00;99.90;;;;;;5043950;28;20504;-70
2022/05/12 07:03:04;;;;;;;5.70;1.63;;;13.90;99.90;;;;;;5060265;28;20115;-69
2022/05/12 07:05:30;;;;;;;2.92;1.30;;;14.00;99.90;;;;;;5054504;28;20481;-70
2022/05/12 07:07:56;;;;;;;2.00;1.20;;;14.00;99.90;;;;;;5051983;28;20040;-69
2022/05/12 07:10:24;;;;;;;3.00;0.95;;;14.00;99.90;;;;;;5056329;28;20044;-69
2022/05/12 07:12:51;;;;;;;1.23;0.90;;;14.00;99.90;;;;;;5053141;28;20037;-69
2022/05/12 07:15:17;;;;;;;2.97;1.35;;;14.00;99.90;;;;;;5053650;28;20065;-70
2022/05/12 07:17:44;;;;;;;1.85;1.08;;;14.00;99.90;;;;;;5034194;28;20044;-69
2022/05/12 07:28:28;;;;;;;1.73;0.85;;;14.10;99.90;;;;;;5059852;28;20052;-69
2022/05/12 07:31:00;;;;;;;3.08;0.82;;;14.10;99.90;;;;;;5065463;28;20084;-69
2022/05/12 07:33:27;;;;;;;2.38;0.75;;;14.10;99.90;;;;;;5066593;28;20497;-69
2022/05/12 07:35:53;;;;;;;1.55;0.80;;;14.10;99.90;;;;;;5052253;28;20044;-69
2022/05/12 07:38:19;;;;;;;2.55;0.82;;;14.20;99.90;;;;;;5069313;28;20048;-69
2022/05/12 07:40:44;;;;;;;1.45;0.52;;;14.20;99.90;;;;;;5055274;28;20048;-69
2022/05/12 07:43:10;;;;;;;4.53;0.75;;;14.20;99.90;;;;;;5055289;28;20039;-69
2022/05/12 07:45:36;;;;;;;2.45;0.55;;;14.20;99.90;;;;;;5051378;28;20128;-69
2022/05/12 07:48:02;;;;;;;2.33;0.68;;;14.30;99.90;;;;;;5049871;28;20426;-69
2022/05/12 07:50:28;;;;;;;1.17;0.70;;;14.40;99.90;;;;;;5050033;28;20120;-69
2022/05/12 07:52:54;;;;;;;0.93;0.35;;;14.40;99.90;;;;;;5032755;28;20402;-69
2022/05/12 07:55:20;;;;;;;2.50;0.50;;;14.40;99.90;;;;;;5050370;28;20052;-69
2022/05/12 07:57:46;;;;;;;1.00;0.47;;;14.50;99.90;;;;;;5051194;28;20505;-69
2022/05/12 08:00:12;;;;;;;1.17;0.40;;;14.50;99.90;;;;;;5070184;28;20040;-69
2022/05/12 08:02:38;;;;;;;2.28;0.70;;;14.60;99.90;;;;;;5069623;28;20082;-69
2022/05/12 08:05:04;;;;;;;0.70;0.32;;;14.60;99.90;;;;;;5071220;28;20508;-69
2022/05/12 08:07:31;;;;;;;0.95;0.60;;;14.70;99.90;;;;;;5066755;28;20045;-69
2022/05/12 08:09:58;;;;;;;0.73;0.40;;;14.80;99.90;;;;;;5051158;28;20391;-69
2022/05/12 08:12:24;;;;;;;3.00;0.65;;;14.90;99.90;;;;;;5049583;28;20449;-69
2022/05/12 08:14:50;;;;;;;1.85;0.45;;;15.00;99.90;;;;;;5070719;28;20082;-69
2022/05/12 08:17:16;;;;;;;0.65;0.40;;;15.00;99.90;;;;;;5090724;28;20097;-69
2022/05/12 08:19:41;;;;;;;0.65;0.30;;;15.00;99.90;;;;;;5090987;28;20044;-70
2022/05/12 08:22:07;;;;;;;1.40;0.40;;;15.10;99.90;;;;;;5071630;28;20040;-69
2022/05/12 08:24:33;;;;;;;1.17;0.40;;;15.30;99.90;;;;;;5064290;28;20028;-69
2022/05/12 08:26:58;;;;;;;2.33;0.70;;;15.30;99.90;;;;;;5064799;28;20447;-69
2022/05/12 08:29:24;;;;;;;1.42;0.40;;;15.30;99.90;;;;;;5059496;28;20036;-69
2022/05/12 08:31:49;;;;;;;0.82;0.52;;;15.20;99.90;;;;;;5080591;28;20599;-69
2022/05/12 08:34:15;;;;;;;0.77;0.60;;;15.20;99.90;;;;;;5082308;28;20413;-68
2022/05/12 08:36:41;;;;;;;0.55;0.20;;;15.30;99.90;;;;;;5056964;28;20051;-69
2022/05/12 08:39:06;;;;;;;0.70;0.30;;;15.40;99.90;;;;;;5063088;28;20579;-69
2022/05/12 08:41:32;;;;;;;1.02;0.47;;;15.40;99.90;;;;;;5062265;28;20032;-69
2022/05/12 08:44:06;;;;;;;0.88;0.43;;;15.50;99.90;;;;;;5051643;28;20047;-69
2022/05/12 08:46:38;;;;;;;1.08;0.47;;;15.60;99.90;;;;;;5049388;28;20037;-68
2022/05/12 08:49:26;;;;;;;1.05;0.38;;;15.70;99.90;;;;;;5057879;28;20544;-69
2022/05/12 08:52:14;;;;;;;0.77;0.50;;;15.90;99.90;;;;;;5055493;28;20082;-69
2022/05/12 08:54:46;;;;;;;0.80;0.40;;;16.00;99.90;;;;;;5034088;28;20341;-69
2022/05/12 08:57:31;;;;;;;3.35;0.45;;;16.10;99.90;;;;;;5052073;28;20040;-69
2022/05/12 08:59:58;;;;;;;0.65;0.30;;;16.10;99.90;;;;;;5052644;28;20045;-69
2022/05/12 09:02:26;;;;;;;1.52;0.43;;;16.20;99.90;;;;;;5035007;28;20123;-69
2022/05/12 09:05:09;;;;;;;0.90;0.60;;;16.20;99.90;;;;;;5048763;28;20111;-68
2022/05/12 09:07:40;;;;;;;1.60;0.60;;;16.10;99.50;;;;;;5048544;28;20060;-69
2022/05/12 09:10:29;;;;;;;1.27;0.60;;;16.20;99.90;;;;;;5050035;28;20047;-69
2022/05/12 09:13:05;;;;;;;1.00;0.57;;;16.30;99.90;;;;;;5057618;28;20067;-68
2022/05/12 09:15:35;;;;;;;1.27;0.40;;;16.40;99.90;;;;;;5072451;28;20048;-69
2022/05/12 09:18:16;;;;;;;0.95;0.55;;;16.40;99.90;;;;;;5082271;28;20034;-68
2022/05/12 09:20:41;;;;;;;1.10;0.47;;;16.40;99.90;;;;;;5082884;28;20056;-68
2022/05/12 09:23:07;;;;;;;1.23;0.32;;;16.40;99.90;;;;;;5045358;28;20044;-69
2022/05/12 09:25:37;;;;;;;2.15;0.57;;;16.50;99.90;;;;;;5043781;28;20055;-69
2022/05/12 09:28:34;;;;;;;2.70;0.57;;;16.60;99.10;;;;;;5071336;28;20036;-69
2022/05/12 09:31:19;;;;;;;1.63;0.52;;;16.70;94.20;;;;;;5047701;28;20500;-69
2022/05/12 09:33:47;;;;;;;;;;;16.70;97.20;;;;;;5068825;28;20086;-68
2022/05/12 09:36:28;;;;;;;0.30;0.30;;;16.80;96.80;;;;;;5072251;28;19920;-70
2022/05/12 09:38:58;;;;;;;1.77;0.50;;;16.90;98.50;;;;;;5067710;28;20044;-69
2022/05/12 09:41:36;;;;;;;1.15;0.70;;;17.00;99.00;;;;;;5052780;28;20040;-70
2022/05/12 09:44:18;;;;;;;1.38;0.45;;;17.10;96.70;;;;;;5075587;28;20063;-68
2022/05/12 09:46:59;;;;;;;0.63;0.40;;;17.10;95.40;;;;;;5051479;28;20049;-68
2022/05/12 09:49:32;;;;;;;2.15;0.60;;;17.10;97.10;;;;;;5054082;28;20118;-68
2022/05/12 09:52:24;;;;;;;2.13;0.50;;;17.20;97.00;;;;;;5047149;28;20781;-68
2022/05/12 09:55:10;;;;;;;1.17;0.52;;;17.10;93.00;;;;;;5033215;28;20043;-70
2022/05/12 09:57:36;;;;;;;0.75;0.50;;;17.10;94.00;;;;;;5072373;28;20047;-68
2022/05/12 10:00:03;;;;;;;0.70;0.50;;;17.10;97.10;;;;;;5052876;28;20565;-69
2022/05/12 10:08:27;;;;;;;0.55;0.30;;;16.90;94.50;;;;;;5054228;28;20120;-69
2022/05/12 10:11:02;;;;;;;1.50;0.40;;;16.80;93.20;;;;;;5046416;28;20394;-69
2022/05/12 10:13:40;;;;;;;0.65;0.32;;;16.70;94.90;;;;;;5067923;28;20042;-68
2022/05/12 10:16:09;;;;;;;1.75;0.47;;;16.50;91.20;;;;;;5061675;28;20039;-68
2022/05/12 10:18:42;;;;;;;1.17;0.32;;;16.50;95.00;;;;;;5053396;28;20044;-68
2022/05/12 10:21:23;;;;;;;0.88;0.30;;;16.50;93.70;;;;;;5051366;28;20119;-68
2022/05/12 10:24:11;;;;;;;1.42;0.40;;;16.40;93.50;;;;;;5036511;28;20051;-68
2022/05/12 10:26:40;;;;;;;1.23;0.32;;;16.30;90.30;;;;;;5052141;28;20042;-68
2022/05/12 10:29:34;;;;;;;1.08;0.55;;;16.20;93.90;;;;;;5054773;28;20050;-69
2022/05/12 10:32:39;;;;;;;0.57;0.30;;;16.10;91.90;;;;;;5046564;28;21133;-69
2022/05/12 10:35:19;;;;;;;0.60;0.32;;;16.00;91.50;;;;;;5054716;28;20414;-69
2022/05/12 10:37:48;;;;;;;0.65;0.30;;;16.00;92.60;;;;;;5049321;28;20044;-69
2022/05/12 10:40:35;;;;;;;4.63;0.77;;;16.00;94.00;;;;;;5047552;28;20036;-69
2022/05/12 10:43:12;;;;;;;1.23;0.40;;;16.10;93.00;;;;;;5054792;28;20044;-69
2022/05/12 10:45:59;;;;;;;1.63;0.35;;;16.10;91.90;;;;;;5054936;28;20333;-69
2022/05/12 10:48:39;;;;;;;0.70;0.30;;;16.20;90.60;;;;;;5051140;28;20044;-69
2022/05/12 10:51:36;;;;;;;0.32;0.15;;;16.10;90.80;;;;;;5050359;28;20155;-69
2022/05/12 10:54:22;;;;;;;0.20;0.20;;;16.10;91.50;;;;;;5032210;28;20078;-68
2022/05/12 10:56:59;;;;;;;;;;;16.20;90.50;;;;;;5073939;28;20044;-69
2022/05/12 10:59:43;;;;;;;2.25;0.32;;;16.20;83.00;;;;;;5050586;28;19935;-69
2022/05/12 11:02:19;;;;;;;2.03;0.17;;;16.30;91.50;;;;;;5056985;28;20113;-69
2022/05/12 11:05:00;;;;;;;1.52;0.35;;;16.40;83.50;;;;;;5052645;28;20105;-69
2022/05/12 11:07:28;;;;;;;1.92;0.52;;;16.40;90.50;;;;;;5050079;28;20195;-68
2022/05/12 11:10:06;;;;;;;0.10;0.10;;;16.50;91.70;;;;;;5061845;28;20036;-69
2022/05/12 11:12:45;;;;;;;0.30;0.20;;;16.60;90.60;;;;;;5044590;28;20066;-69
2022/05/12 11:15:23;;;;;;;0.52;0.20;;;16.70;89.90;;;;;;5058827;28;20051;-69
2022/05/12 11:18:00;;;;;;;0.45;0.20;;;16.80;87.70;;;;;;5048468;28;20501;-68
2022/05/12 11:20:32;;;;;;;0.55;0.25;;;16.70;90.30;;;;;;5068653;28;20489;-69
2022/05/12 11:23:17;;;;;;;1.13;0.32;;;16.80;90.10;;;;;;5057973;28;20047;-68
2022/05/12 11:26:05;;;;;;;0.82;0.20;;;16.90;83.10;;;;;;5042148;28;20370;-69
2022/05/12 11:32:04;;;;;;;1.33;0.50;;;17.10;76.40;;;;;;5056300;28;20516;-69
2022/05/12 11:34:30;;;;;;;2.20;0.38;;;17.00;68.90;;;;;;5045000;28;20050;-69
2022/05/12 11:36:57;;;;;;;2.55;0.70;;;16.90;83.90;;;;;;5061199;28;20351;-69
2022/05/12 11:39:27;;;;;;;0.98;0.30;;;16.80;85.30;;;;;;5058588;28;21428;-68
2022/05/12 11:42:11;;;;;;;1.85;0.50;;;16.70;86.70;;;;;;5056934;28;20716;-69
2022/05/12 11:44:59;;;;;;;0.40;0.30;;;16.70;76.80;;;;;;5054248;28;20047;-68
2022/05/12 11:47:43;;;;;;;1.10;0.32;;;16.70;80.80;;;;;;5060778;28;20048;-69
2022/05/12 11:50:27;;;;;;;1.75;0.20;;;16.80;81.30;;;;;;5078762;28;20047;-68
2022/05/12 11:53:16;;;;;;;0.40;0.20;;;16.90;84.80;;;;;;5062040;28;20519;-68
2022/05/12 11:55:57;;;;;;;1.17;0.55;;;17.00;83.30;;;;;;5041809;28;20049;-68
2022/05/12 11:59:08;;;;;;;0.70;0.40;;;17.20;83.10;;;;;;5055025;28;20171;-68
2022/05/12 12:01:37;;;;;;;0.65;0.43;;;17.40;79.10;;;;;;5055216;28;20032;-69
2022/05/12 12:04:03;;;;;;;1.33;0.50;;;17.50;81.80;;;;;;5055431;28;20039;-69
2022/05/12 12:06:49;;;;;;;0.32;0.22;;;17.40;83.60;;;;;;5060718;28;20036;-69
2022/05/12 12:09:31;;;;;;;;;;;17.40;76.00;;;;;;5063138;28;20161;-69
2022/05/12 12:11:57;;;;;;;1.65;0.30;;;17.30;72.00;;;;;;5051389;28;19917;-68
2022/05/12 12:14:59;;;;;;;0.65;0.35;;;17.30;83.10;;;;;;5056700;28;20437;-68
2022/05/12 12:17:25;;;;;;;0.38;0.20;;;17.30;75.10;;;;;;4980307;28;20133;-71
2022/05/12 12:19:53;;;;;;;1.13;0.30;;;17.30;83.30;;;;;;5038636;28;20401;-69
2022/05/12 12:22:37;;;;;;;1.58;0.32;;;17.40;82.40;;;;;;5057122;28;20044;-69
2022/05/12 12:25:26;;;;;;;1.08;0.52;;;17.50;77.90;;;;;;5061269;28;20058;-68
2022/05/12 12:27:57;;;;;;;0.85;0.28;;;17.60;81.00;;;;;;5054113;28;20579;-68
2022/05/12 12:30:36;;;;;;;0.35;0.10;;;17.70;78.90;;;;;;5053313;28;20033;-68
2022/05/12 12:33:19;;;;;;;1.25;0.25;;;17.80;73.30;;;;;;5060608;28;20028;-68
2022/05/12 12:35:56;;;;;;;2.05;0.30;;;17.90;70.20;;;;;;5056183;28;20040;-69
2022/05/12 12:38:42;;;;;;;0.65;0.30;;;18.10;73.90;;;;;;5075675;28;20036;-68
2022/05/12 12:41:09;;;;;;;0.30;0.13;;;18.20;67.30;;;;;;5065149;28;20040;-68
2022/05/12 12:43:43;;;;;;;1.63;0.30;;;18.30;74.90;;;;;;5052971;28;20027;-68
2022/05/12 12:46:35;;;;;;;0.40;0.30;;;18.10;73.80;;;;;;5054152;28;20040;-68
2022/05/12 12:49:22;;;;;;;0.25;0.15;;;18.00;72.90;;;;;;5070704;28;20052;-68
2022/05/12 12:52:06;;;;;;;1.27;0.30;;;17.90;70.40;;;;;;5051217;28;20151;-68
2022/05/12 12:57:40;;;;;;;0.60;0.20;;;17.90;74.60;;;;;;5051016;28;20044;-68
2022/05/12 13:00:15;;;;;;;1.00;0.30;;;18.00;71.40;;;;;;5050559;28;20041;-68
2022/05/12 13:02:44;;;;;;;0.20;0.20;;;18.10;74.00;;;;;;5071830;28;20020;-68
2022/05/12 13:05:20;;;;;;;0.93;0.28;;;18.00;72.10;;;;;;5076863;28;20044;-68
2022/05/12 13:07:57;;;;;;;1.25;0.30;;;17.80;71.10;;;;;;5057141;28;20035;-68
2022/05/12 13:10:24;;;;;;;0.68;0.35;;;17.70;71.80;;;;;;5053020;28;20081;-68
2022/05/12 13:13:04;;;;;;;0.90;0.50;;;17.60;74.70;;;;;;5054506;28;20134;-68
2022/05/12 13:15:32;;;;;;;0.50;0.30;;;17.50;70.00;;;;;;5047311;28;20761;-68
2022/05/12 13:18:01;;;;;;;1.25;0.28;;;17.40;73.60;;;;;;5060698;28;20047;-68
2022/05/12 13:20:38;;;;;;;1.05;0.50;;;17.30;73.80;;;;;;5055978;28;20094;-68
2022/05/12 13:23:11;;;;;;;0.90;0.40;;;17.20;74.00;;;;;;5051280;28;20043;-68
2022/05/12 13:25:40;;;;;;;0.85;0.30;;;17.30;72.40;;;;;;5032976;28;20028;-68
2022/05/12 13:28:11;;;;;;;0.47;0.30;;;17.30;71.20;;;;;;5052762;28;20048;-68
2022/05/12 13:30:40;;;;;;;0.63;0.30;;;17.40;71.30;;;;;;5052037;28;20071;-68
2022/05/12 13:33:11;;;;;;;1.70;0.40;;;17.50;70.60;;;;;;5070938;28;20064;-68